Time;durP1;ratioP1;P1;durP2;ratioP2;P2;SDS_P1;SDS_P2;PMS_P1;PMS_P2;Temp;Humidity;BMP_temperature;BMP_pressure;BME280_temperature;BME280_humidity;BME280_pressure;Samples;Min_cycle;Max_cycle;Signal;HPM_P1;HPM_P2
2021/12/20 00:01:08;;;;;;;;;19.25;18.25;;;;;8.29;67.55;102334.78;5080553;28;45327;-65
2021/12/20 00:03:34;;;;;;;;;20.00;19.00;;;;;8.30;67.12;102335.69;5080757;28;45792;-65
2021/12/20 00:06:00;;;;;;;;;18.25;16.25;;;;;8.28;67.57;102330.34;5067075;28;46321;-65
2021/12/20 00:08:27;;;;;;;;;21.50;21.00;;;;;8.30;67.33;102325.03;5080415;28;45384;-65
2021/12/20 00:10:53;;;;;;;;;21.00;19.50;;;;;8.29;67.22;102317.94;5080221;28;45491;-65
2021/12/20 00:13:18;;;;;;;;;24.00;21.50;;;;;8.28;67.28;102327.69;5080606;28;45277;-65
2021/12/20 00:15:44;;;;;;;;;14.00;10.25;;;;;8.27;67.27;102325.94;5080233;28;45162;-65
2021/12/20 00:18:09;;;;;;;;;20.50;20.00;;;;;8.25;67.44;102325.03;5080626;28;45190;-65
2021/12/20 00:20:35;;;;;;;;;20.50;18.50;;;;;8.29;67.52;102328.59;5079357;28;45606;-65
2021/12/20 00:23:00;;;;;;;;;20.50;19.00;;;;;8.28;67.26;102317.03;5080101;28;45371;-65
2021/12/20 00:25:26;;;;;;;;;26.00;18.75;;;;;8.41;67.23;102320.63;5079941;28;45197;-65
2021/12/20 00:27:51;;;;;;;;;20.00;18.75;;;;;8.28;67.04;102298.41;5080484;28;45315;-65
2021/12/20 00:30:17;;;;;;;;;27.75;23.50;;;;;8.38;67.31;102325.94;5079890;28;45416;-65
2021/12/20 00:32:42;;;;;;;;;24.00;21.50;;;;;8.37;67.25;102323.28;5080316;28;45453;-65
2021/12/20 00:35:08;;;;;;;;;19.50;19.50;;;;;8.34;67.34;102314.41;5079963;28;45421;-64
2021/12/20 00:40:20;;;;;;;;;20.00;18.25;;;;;8.34;67.47;102321.50;5079989;28;45437;-65
2021/12/20 00:42:47;;;;;;;;;26.00;19.50;;;;;8.37;67.39;102315.28;5080111;28;45403;-65
2021/12/20 00:45:13;;;;;;;;;16.25;14.75;;;;;8.34;67.02;102308.22;5079741;28;45461;-65
2021/12/20 00:47:40;;;;;;;;;18.00;15.25;;;;;8.32;67.11;102310.84;5079930;28;45641;-65
2021/12/20 00:50:07;;;;;;;;;16.50;13.75;;;;;8.31;67.07;102310.84;5079858;28;45347;-65
2021/12/20 00:52:33;;;;;;;;;20.50;17.50;;;;;8.28;67.80;102311.72;5079482;28;45319;-65
2021/12/20 00:54:58;;;;;;;;;21.00;18.75;;;;;8.36;67.48;102314.41;5079846;28;46104;-65
2021/12/20 00:57:24;;;;;;;;;15.25;15.00;;;;;8.33;67.42;102294.00;5079701;28;45260;-65
2021/12/20 00:59:50;;;;;;;;;20.50;19.25;;;;;8.45;67.08;102300.25;5079829;28;45408;-65
2021/12/20 01:02:15;;;;;;;;;21.00;18.25;;;;;8.49;67.12;102307.38;5079853;28;45299;-65
2021/12/20 01:04:41;;;;;;;;;19.25;17.25;;;;;8.51;67.04;102298.50;5079577;28;46368;-65
2021/12/20 01:07:06;;;;;;;;;21.00;19.00;;;;;8.58;66.82;102311.81;5079711;28;45304;-65
2021/12/20 01:09:32;;;;;;;;;21.00;17.00;;;;;8.61;66.80;102299.41;5079682;28;45251;-65
2021/12/20 01:12:03;;;;;;;;;21.00;17.00;;;;;8.62;66.74;102294.94;5079548;28;45520;-65
2021/12/20 01:14:31;;;;;;;;;16.00;13.50;;;;;8.58;66.37;102290.53;5079834;28;45431;-65
2021/12/20 01:17:02;;;;;;;;;18.75;17.25;;;;;8.61;66.77;102293.19;5079676;28;45294;-65
2021/12/20 01:19:28;;;;;;;;;21.50;20.50;;;;;8.58;66.58;102287.88;5080070;28;45350;-65
2021/12/20 01:21:53;;;;;;;;;21.75;19.25;;;;;8.44;66.43;102277.22;5079402;28;45367;-65
2021/12/20 01:24:18;;;;;;;;;20.50;19.00;;;;;8.48;66.52;102279.84;5079352;28;45305;-65
2021/12/20 01:26:44;;;;;;;;;29.00;20.25;;;;;8.46;66.74;102270.13;5079205;28;45376;-65
2021/12/20 01:29:09;;;;;;;;;23.00;20.00;;;;;8.53;67.16;102280.75;5079745;28;45396;-65
2021/12/20 01:31:34;;;;;;;;;21.25;16.25;;;;;8.58;66.81;102279.88;5079242;28;45284;-65
2021/12/20 01:34:00;;;;;;;;;21.75;20.25;;;;;8.52;66.74;102273.66;5082913;28;45302;-65
2021/12/20 01:36:25;;;;;;;;;22.75;18.75;;;;;8.56;66.74;102284.31;5082826;28;45367;-65
2021/12/20 01:38:50;;;;;;;;;23.75;21.25;;;;;8.60;66.81;102283.41;5082967;28;45302;-65
2021/12/20 01:41:16;;;;;;;;;23.25;19.50;;;;;8.57;66.89;102283.41;5082765;28;45253;-65
2021/12/20 01:43:41;;;;;;;;;25.25;21.00;;;;;8.52;66.37;102281.66;5082881;28;46099;-65
2021/12/20 01:46:07;;;;;;;;;22.75;19.50;;;;;8.47;66.54;102280.75;5082459;28;45252;-65
2021/12/20 01:48:32;;;;;;;;;20.50;20.50;;;;;8.49;66.80;102288.75;5082749;28;45335;-65
2021/12/20 01:53:34;;;;;;;;;27.75;22.00;;;;;8.48;66.59;102277.19;5082220;28;46175;-65
2021/12/20 01:56:00;;;;;;;;;26.50;24.00;;;;;8.46;66.65;102276.31;5082377;28;45203;-65
2021/12/20 01:58:27;;;;;;;;;26.50;25.00;;;;;8.43;66.53;102270.97;5082853;28;45299;-65
2021/12/20 02:03:35;;;;;;;;;18.75;18.75;;;;;8.45;66.58;102274.56;5082495;28;45276;-65
2021/12/20 02:06:04;;;;;;;;;21.00;19.25;;;;;8.40;66.52;102260.28;5082489;28;45401;-65
2021/12/20 02:08:30;;;;;;;;;26.50;24.25;;;;;8.40;66.64;102268.28;5082374;28;45320;-65
2021/12/20 02:10:58;;;;;;;;;24.50;18.75;;;;;8.40;66.57;102272.72;5082114;28;45325;-65
2021/12/20 02:13:30;;;;;;;;;21.75;18.75;;;;;8.31;66.55;102260.31;5082307;28;47267;-64
2021/12/20 02:15:57;;;;;;;;;28.25;25.25;;;;;8.28;66.55;102260.28;5082268;28;45349;-65
2021/12/20 02:18:23;;;;;;;;;24.75;22.75;;;;;8.31;66.73;102263.84;5082417;28;45432;-65
2021/12/20 02:20:49;;;;;;;;;32.50;25.00;;;;;8.25;66.53;102261.19;5082136;28;45490;-65
2021/12/20 02:23:14;;;;;;;;;22.50;19.50;;;;;8.31;66.40;102273.59;5080543;28;47063;-65
2021/12/20 02:25:39;;;;;;;;;27.25;25.25;;;;;8.25;66.44;102260.28;5081998;28;45337;-65
2021/12/20 02:28:13;;;;;;;;;23.50;20.50;;;;;8.33;66.80;102270.03;5082242;28;45465;-65
2021/12/20 02:38:54;;;;;;;;;20.50;18.25;;;;;8.24;66.67;102259.41;5081776;28;45267;-65
2021/12/20 02:41:28;;;;;;;;;28.75;24.75;;;;;8.20;66.56;102254.06;5081752;28;45406;-65
2021/12/20 02:43:57;;;;;;;;;30.25;26.50;;;;;8.22;66.50;102260.28;5080801;28;46033;-65
2021/12/20 02:49:08;;;;;;;;;25.00;23.25;;;;;8.26;66.81;102262.06;5081783;28;45282;-65
2021/12/20 02:51:35;;;;;;;;;28.50;28.50;;;;;8.26;66.63;102251.44;5081598;28;45316;-65
2021/12/20 02:54:02;;;;;;;;;28.75;26.25;;;;;8.29;66.72;102256.75;5081119;28;46355;-65
2021/12/20 02:56:28;;;;;;;;;32.25;27.25;;;;;8.20;66.41;102231.00;5081441;28;45670;-65
2021/12/20 02:58:54;;;;;;;;;30.50;27.75;;;;;8.31;66.83;102247.00;5081921;28;45240;-64
2021/12/20 03:01:20;;;;;;;;;33.25;28.25;;;;;8.37;67.00;102251.44;5081486;28;45215;-65
2021/12/20 03:03:48;;;;;;;;;33.00;30.50;;;;;8.38;66.48;102235.47;5081398;28;46293;-66
2021/12/20 03:06:18;;;;;;;;;34.25;30.00;;;;;8.46;66.73;102241.72;5081364;28;45452;-64
2021/12/20 03:08:47;;;;;;;;;33.50;29.50;;;;;8.46;66.21;102239.06;5081438;28;45182;-65
2021/12/20 03:11:13;;;;;;;;;32.00;29.00;;;;;8.47;66.21;102243.50;5081311;28;45442;-64
2021/12/20 03:13:39;;;;;;;;;33.50;28.50;;;;;8.45;66.56;102242.63;5081216;28;46141;-65
2021/12/20 03:16:05;;;;;;;;;34.75;33.75;;;;;8.46;66.56;102228.41;5081483;28;45371;-65
2021/12/20 03:18:30;;;;;;;;;34.75;24.75;;;;;8.42;66.16;102217.72;5081361;28;45342;-64
2021/12/20 03:20:56;;;;;;;;;42.50;35.50;;;;;8.48;66.34;102220.44;5081226;28;45297;-65
2021/12/20 03:23:21;;;;;;;;;37.75;30.50;;;;;8.50;66.68;102219.56;5062695;28;46048;-65
2021/12/20 03:25:47;;;;;;;;;45.25;38.00;;;;;8.58;66.58;102223.97;5081045;28;45309;-65
2021/12/20 03:28:12;;;;;;;;;36.00;33.25;;;;;8.60;66.31;102211.56;5081382;28;45405;-65
2021/12/20 03:30:38;;;;;;;;;7.75;5.25;;;;;8.67;66.37;102227.53;5080948;28;45177;-65
2021/12/20 03:33:03;;;;;;;;;31.00;28.75;;;;;8.61;65.83;102218.66;5080979;28;45216;-65
2021/12/20 03:35:28;;;;;;;;;26.75;23.75;;;;;8.56;66.12;102223.97;5081016;28;45212;-65
2021/12/20 03:37:54;;;;;;;;;31.00;29.00;;;;;8.59;66.28;102223.09;5080971;28;45210;-65
2021/12/20 03:40:19;;;;;;;;;37.25;31.25;;;;;8.56;66.18;102215.13;5080896;28;45303;-65
2021/12/20 03:42:46;;;;;;;;;40.75;31.00;;;;;8.48;65.95;102202.69;5081074;28;45204;-65
2021/12/20 03:45:14;;;;;;;;;39.25;30.25;;;;;8.56;66.11;102220.44;5062660;28;45258;-65
2021/12/20 03:47:40;;;;;;;;;35.75;31.75;;;;;8.52;66.07;102206.25;5080784;28;45407;-65
2021/12/20 03:50:06;;;;;;;;;31.50;30.75;;;;;8.52;65.98;102208.91;5080660;28;45319;-65
2021/12/20 03:52:32;;;;;;;;;36.25;34.00;;;;;8.47;66.00;102197.34;5080236;28;47053;-65
2021/12/20 03:54:59;;;;;;;;;37.00;32.75;;;;;8.53;66.16;102200.91;5080445;28;46329;-65
2021/12/20 03:57:24;;;;;;;;;30.25;29.00;;;;;8.53;65.80;102205.34;5080763;28;45237;-65
2021/12/20 03:59:51;;;;;;;;;35.75;29.25;;;;;8.50;65.99;102200.94;5066923;28;45691;-65
2021/12/20 04:02:19;;;;;;;;;41.50;35.25;;;;;8.57;65.92;102203.56;5080601;28;46217;-65
2021/12/20 04:04:44;;;;;;;;;38.50;34.25;;;;;8.63;66.05;102211.56;5080538;28;45648;-65
2021/12/20 04:07:10;;;;;;;;;39.00;33.75;;;;;8.59;66.11;102207.13;5080442;28;45532;-65
2021/12/20 04:09:35;;;;;;;;;34.75;33.25;;;;;8.68;66.09;102209.78;5080670;28;45461;-65
2021/12/20 04:12:01;;;;;;;;;34.00;32.00;;;;;8.64;65.58;102203.56;5080109;28;45299;-65
2021/12/20 04:14:26;;;;;;;;;43.25;34.50;;;;;8.60;65.81;102195.59;5080655;28;45364;-65
2021/12/20 04:16:51;;;;;;;;;33.00;21.25;;;;;8.57;65.70;102208.88;5080610;28;45259;-64
2021/12/20 04:19:17;;;;;;;;;40.00;35.00;;;;;8.55;65.89;102213.34;5080234;28;45399;-65
2021/12/20 04:21:42;;;;;;;;;38.25;35.00;;;;;8.50;66.02;102208.00;5080117;28;45201;-65
2021/12/20 04:24:08;;;;;;;;;33.25;33.00;;;;;8.57;65.82;102222.19;5079911;28;45277;-65
2021/12/20 04:26:33;;;;;;;;;36.25;33.25;;;;;8.56;65.97;102216.00;5080337;28;45427;-65
2021/12/20 04:28:58;;;;;;;;;31.25;30.75;;;;;8.49;65.56;102212.44;5079936;28;50885;-65
2021/12/20 04:31:24;;;;;;;;;37.50;34.75;;;;;8.43;65.92;102215.09;5079985;28;45326;-65
2021/12/20 04:33:49;;;;;;;;;37.75;34.50;;;;;8.45;65.87;102221.34;5080207;28;45239;-65
2021/12/20 04:36:14;;;;;;;;;36.75;35.25;;;;;8.42;66.10;102218.63;5080370;28;45207;-65
2021/12/20 04:38:41;;;;;;;;;38.50;33.50;;;;;8.39;66.17;102223.94;5079837;28;45314;-65
2021/12/20 04:41:06;;;;;;;;;36.75;34.00;;;;;8.41;66.05;102215.97;5079899;28;46283;-65
2021/12/20 04:43:31;;;;;;;;;34.00;32.50;;;;;8.34;65.98;102196.47;5080081;28;45422;-65
2021/12/20 04:45:57;;;;;;;;;39.25;34.75;;;;;8.41;66.18;102218.63;5078713;28;45284;-65
2021/12/20 04:48:22;;;;;;;;;37.50;36.00;;;;;8.36;66.58;102202.66;5079776;28;45481;-65
2021/12/20 04:50:48;;;;;;;;;26.00;24.00;;;;;8.40;66.00;102203.53;5079982;28;46211;-65
2021/12/20 04:53:13;;;;;;;;;31.50;30.25;;;;;8.41;66.17;102210.66;5079465;28;45334;-65
2021/12/20 04:55:38;;;;;;;;;44.75;38.50;;;;;8.46;66.19;102216.88;5079876;28;45321;-65
2021/12/20 04:58:05;;;;;;;;;31.25;27.00;;;;;8.44;66.02;102222.22;5079815;28;45564;-65
2021/12/20 05:00:36;;;;;;;;;36.50;32.75;;;;;8.44;65.84;102216.88;5079755;28;45468;-65
2021/12/20 05:03:03;;;;;;;;;38.00;31.25;;;;;8.43;65.64;102219.53;5079802;28;45253;-65
2021/12/20 05:05:29;;;;;;;;;32.25;29.25;;;;;8.38;65.83;102216.84;5080007;28;45410;-65
2021/12/20 05:07:55;;;;;;;;;34.00;29.25;;;;;8.37;66.02;102215.09;5081428;28;45372;-65
2021/12/20 05:10:26;;;;;;;;;38.50;30.75;;;;;8.32;66.09;102217.75;5083133;28;46323;-65
2021/12/20 05:12:54;;;;;;;;;37.25;31.50;;;;;8.31;66.09;102215.94;5083452;28;45411;-65
2021/12/20 05:15:20;;;;;;;;;34.00;28.00;;;;;8.30;66.31;102221.28;5083331;28;45454;-65
2021/12/20 05:17:45;;;;;;;;;30.75;28.75;;;;;8.34;66.21;102210.63;5083300;28;45561;-65
2021/12/20 05:20:12;;;;;;;;;43.75;36.00;;;;;8.29;65.88;102223.06;5082938;28;45436;-65
2021/12/20 05:22:37;;;;;;;;;16.50;10.25;;;;;8.23;65.90;102230.13;5083017;28;45359;-65
2021/12/20 05:25:03;;;;;;;;;37.75;29.75;;;;;8.15;66.27;102212.41;5083098;28;45165;-65
2021/12/20 05:27:28;;;;;;;;;36.50;31.75;;;;;8.19;66.29;102221.28;5083170;28;45239;-65
2021/12/20 05:29:54;;;;;;;;;29.75;25.00;;;;;8.23;66.27;102231.00;5082714;28;45445;-65
2021/12/20 05:32:20;;;;;;;;;36.00;30.75;;;;;8.21;66.08;102224.81;5082969;28;45334;-65
2021/12/20 05:34:46;;;;;;;;;30.25;24.75;;;;;8.22;65.85;102223.94;5083208;28;45225;-64
2021/12/20 05:37:13;;;;;;;;;30.00;26.25;;;;;8.25;66.16;102225.69;5082836;28;45209;-65
2021/12/20 05:39:39;;;;;;;;;29.75;28.50;;;;;8.26;65.99;102216.84;5082672;28;46311;-65
2021/12/20 05:42:05;;;;;;;;;30.75;28.25;;;;;8.24;66.09;102219.50;5082829;28;45381;-65
2021/12/20 05:44:30;;;;;;;;;33.00;26.00;;;;;8.22;65.90;102207.97;5082705;28;45319;-65
2021/12/20 05:46:55;;;;;;;;;29.25;28.25;;;;;8.16;66.00;102222.13;5082865;28;45361;-65
2021/12/20 05:49:21;;;;;;;;;30.50;23.25;;;;;8.14;65.58;102220.38;5082398;28;45877;-65
2021/12/20 05:51:46;;;;;;;;;26.75;23.25;;;;;8.10;66.04;102222.16;5082707;28;45381;-65
2021/12/20 05:54:12;;;;;;;;;29.25;27.25;;;;;8.09;66.17;102223.03;5082417;28;45394;-65
2021/12/20 05:56:37;;;;;;;;;24.75;22.50;;;;;8.07;66.10;102222.16;5082670;28;45212;-65
2021/12/20 05:59:02;;;;;;;;;31.00;25.75;;;;;8.07;66.42;102213.25;5082432;28;46200;-65
2021/12/20 06:01:28;;;;;;;;;29.75;28.25;;;;;8.09;66.07;102228.34;5082654;28;46472;-65
2021/12/20 06:03:53;;;;;;;;;24.25;23.50;;;;;8.11;65.87;102220.38;5082523;28;45493;-65
2021/12/20 06:06:18;;;;;;;;;23.00;23.00;;;;;8.08;65.89;102223.91;5082631;28;45466;-65
2021/12/20 06:08:44;;;;;;;;;28.25;23.25;;;;;8.06;65.97;102220.34;5082004;28;45220;-65
2021/12/20 06:11:09;;;;;;;;;31.25;26.75;;;;;8.07;65.91;102219.50;5082460;28;45210;-65
2021/12/20 06:13:34;;;;;;;;;25.50;23.75;;;;;8.11;66.06;102228.34;5082355;28;45268;-65
2021/12/20 06:15:59;;;;;;;;;34.50;25.75;;;;;8.11;65.74;102231.00;5082462;28;45561;-65
2021/12/20 06:18:25;;;;;;;;;24.00;23.00;;;;;8.07;65.90;102226.56;5081192;28;46604;-65
2021/12/20 06:20:50;;;;;;;;;24.25;24.00;;;;;8.00;65.75;102223.00;5081970;28;45284;-65
2021/12/20 06:23:15;;;;;;;;;30.00;26.00;;;;;7.95;65.88;102222.09;5082130;28;45311;-65
2021/12/20 06:25:41;;;;;;;;;24.25;22.75;;;;;7.98;65.80;102223.03;5082042;28;46868;-65
2021/12/20 06:28:06;;;;;;;;;27.25;23.00;;;;;8.03;65.87;102232.75;5082038;28;46116;-65
2021/12/20 06:30:31;;;;;;;;;21.00;18.50;;;;;7.94;65.48;102220.34;5081743;28;45228;-65
2021/12/20 06:32:57;;;;;;;;;22.50;19.00;;;;;8.02;65.90;102237.22;5082124;28;45744;-65
2021/12/20 06:35:22;;;;;;;;;20.75;18.00;;;;;8.06;65.95;102227.47;5081995;28;45409;-64
2021/12/20 06:37:58;;;;;;;;;20.25;19.25;;;;;8.04;65.54;102222.13;5081648;28;46099;-64
2021/12/20 06:40:24;;;;;;;;;26.25;20.75;;;;;8.04;65.68;102240.75;5081897;28;45470;-65
2021/12/20 06:42:49;;;;;;;;;26.75;23.75;;;;;8.02;65.78;102245.19;5082033;28;45327;-65
2021/12/20 06:45:14;;;;;;;;;23.50;20.50;;;;;7.98;65.57;102228.34;5081709;28;47586;-65
2021/12/20 06:47:40;;;;;;;;;38.50;26.00;;;;;8.02;65.68;102250.50;5081632;28;45291;-65
2021/12/20 06:50:06;;;;;;;;;22.75;22.00;;;;;7.97;65.83;102253.16;5081562;28;45373;-65
2021/12/20 06:52:31;;;;;;;;;28.00;21.75;;;;;7.97;65.75;102242.50;5081436;28;45493;-65
2021/12/20 06:54:56;;;;;;;;;25.00;22.50;;;;;7.93;65.77;102237.16;5081874;28;45589;-65
2021/12/20 06:57:22;;;;;;;;;30.50;24.25;;;;;7.95;65.66;102256.66;5081402;28;46068;-65
2021/12/20 06:59:47;;;;;;;;;24.75;21.75;;;;;7.90;65.84;102254.03;5081703;28;45402;-65
2021/12/20 07:02:14;;;;;;;;;25.25;23.50;;;;;7.96;65.67;102254.00;5081571;28;45536;-65
2021/12/20 07:04:39;;;;;;;;;24.25;23.50;;;;;7.95;65.80;102260.25;5081632;28;45248;-65
2021/12/20 07:07:04;;;;;;;;;26.25;19.50;;;;;7.98;65.99;102249.63;5081225;28;46459;-65
2021/12/20 07:09:30;;;;;;;;;24.25;22.50;;;;;8.00;65.97;102257.56;5081428;28;45394;-65
2021/12/20 07:11:55;;;;;;;;;27.50;24.25;;;;;8.04;65.60;102247.84;5081437;28;45240;-65
2021/12/20 07:14:26;;;;;;;;;24.75;23.50;;;;;8.03;65.67;102251.38;5081338;28;45294;-65
2021/12/20 07:16:51;;;;;;;;;34.50;31.25;;;;;7.96;65.55;102259.34;5081145;28;46171;-65
2021/12/20 07:19:16;;;;;;;;;27.75;22.50;;;;;7.88;65.41;102238.94;5080873;28;52699;-65
2021/12/20 07:21:41;;;;;;;;;30.00;27.25;;;;;7.96;65.54;102245.16;5081372;28;45240;-65
2021/12/20 07:24:07;;;;;;;;;30.25;22.75;;;;;8.03;65.94;102249.59;5062580;28;45587;-65
2021/12/20 07:26:33;;;;;;;;;25.25;23.50;;;;;8.08;65.64;102246.97;5080910;28;47152;-65
2021/12/20 07:28:59;;;;;;;;;34.00;30.25;;;;;8.18;65.65;102253.19;5081303;28;45150;-65
2021/12/20 07:31:25;;;;;;;;;30.00;27.50;;;;;8.24;65.37;102251.44;5080525;28;45312;-65
2021/12/20 07:33:51;;;;;;;;;31.00;25.50;;;;;8.20;65.38;102244.31;5081059;28;45239;-65
2021/12/20 07:36:19;;;;;;;;;29.25;25.50;;;;;8.29;65.64;102244.34;5080891;28;46343;-64
2021/12/20 07:38:45;;;;;;;;;30.00;26.00;;;;;8.28;65.10;102237.22;5062598;28;45579;-65
2021/12/20 07:41:10;;;;;;;;;28.00;25.50;;;;;8.36;65.46;102247.88;5081041;28;45388;-65
2021/12/20 07:43:36;;;;;;;;;33.25;27.25;;;;;8.32;65.34;102247.00;5080817;28;45500;-65
2021/12/20 07:46:01;;;;;;;;;28.25;26.00;;;;;8.31;64.94;102254.97;5080584;28;45374;-65
2021/12/20 07:48:26;;;;;;;;;26.25;24.00;;;;;8.28;64.90;102261.16;5080521;28;45438;-65
2021/12/20 07:50:52;;;;;;;;;26.50;21.25;;;;;8.27;64.97;102253.19;5080748;28;45403;-65
2021/12/20 07:53:18;;;;;;;;;24.75;18.00;;;;;8.22;65.12;102250.53;5080247;28;45422;-65
2021/12/20 07:55:43;;;;;;;;;9.75;7.75;;;;;8.15;65.09;102248.72;5080571;28;45311;-65
2021/12/20 07:58:09;;;;;;;;;25.75;22.75;;;;;8.10;64.96;102248.75;5080693;28;45210;-65
2021/12/20 08:00:35;;;;;;;;;27.75;23.00;;;;;8.07;64.84;102255.81;5080848;28;46381;-65
2021/12/20 08:03:00;;;;;;;;;24.75;24.00;;;;;8.05;65.04;102261.16;5080453;28;45369;-65
2021/12/20 08:05:27;;;;;;;;;23.75;23.75;;;;;8.01;65.01;102262.00;5080425;28;46106;-65
2021/12/20 08:07:53;;;;;;;;;23.75;20.00;;;;;8.03;65.21;102259.38;5080179;28;45363;-65
2021/12/20 08:10:25;;;;;;;;;25.00;24.50;;;;;8.03;65.19;102265.56;5080538;28;45331;-65
2021/12/20 08:12:53;;;;;;;;;23.00;21.00;;;;;8.08;65.29;102258.47;5080555;28;45469;-65
2021/12/20 08:15:21;;;;;;;;;25.50;22.25;;;;;8.12;65.35;102256.75;5080258;28;45627;-64
2021/12/20 08:17:47;;;;;;;;;26.75;25.50;;;;;8.10;65.04;102253.16;5062362;28;45630;-65
2021/12/20 08:20:13;;;;;;;;;24.25;23.25;;;;;8.11;65.23;102263.81;5080389;28;45225;-64
2021/12/20 08:22:39;;;;;;;;;25.00;24.50;;;;;8.05;64.99;102257.59;5080158;28;45502;-65
2021/12/20 08:25:06;;;;;;;;;27.25;22.25;;;;;8.07;64.64;102258.47;5061821;28;48044;-65
2021/12/20 08:27:32;;;;;;;;;26.25;20.25;;;;;8.07;65.18;102256.72;5080249;28;45529;-65
2021/12/20 08:29:57;;;;;;;;;28.75;23.75;;;;;8.13;64.85;102269.13;5080270;28;45364;-65
2021/12/20 08:32:22;;;;;;;;;22.75;20.25;;;;;8.21;64.98;102277.13;5080287;28;45504;-65
2021/12/20 08:34:48;;;;;;;;;27.50;22.00;;;;;8.22;65.16;102284.22;5080047;28;45510;-65
2021/12/20 08:37:13;;;;;;;;;24.50;23.00;;;;;8.21;64.72;102279.81;5080021;28;45426;-65
2021/12/20 08:39:39;;;;;;;;;26.75;23.25;;;;;8.23;65.10;102276.25;5080220;28;45428;-65
2021/12/20 08:42:04;;;;;;;;;26.50;21.25;;;;;8.30;64.72;102279.81;5080711;28;45240;-65
2021/12/20 08:44:31;;;;;;;;;26.50;20.00;;;;;8.34;64.87;102282.47;5083400;28;47360;-65
2021/12/20 08:46:58;;;;;;;;;34.00;32.50;;;;;8.43;64.60;102283.41;5083550;28;45707;-65
2021/12/20 08:49:24;;;;;;;;;24.50;23.25;;;;;8.49;64.77;102286.97;5083542;28;45248;-65
2021/12/20 08:51:49;;;;;;;;;29.25;26.00;;;;;8.51;64.58;102286.97;5083328;28;45336;-65
2021/12/20 08:54:15;;;;;;;;;26.00;22.75;;;;;8.49;64.20;102286.09;5083197;28;46378;-65
2021/12/20 08:56:41;;;;;;;;;30.00;28.00;;;;;8.46;64.34;102294.94;5083610;28;45408;-65
2021/12/20 08:59:07;;;;;;;;;28.50;25.75;;;;;8.41;64.08;102293.13;5083688;28;45167;-65
2021/12/20 09:01:33;;;;;;;;;26.25;24.50;;;;;8.41;63.91;102290.47;5083562;28;45412;-65
2021/12/20 09:03:59;;;;;;;;;27.75;23.00;;;;;8.39;63.73;102300.25;5083227;28;46587;-65
2021/12/20 09:06:25;;;;;;;;;25.00;23.25;;;;;8.38;64.00;102298.44;5083507;28;45473;-65
2021/12/20 09:08:54;;;;;;;;;26.75;23.75;;;;;8.30;63.55;102294.00;5083152;28;45385;-65
2021/12/20 09:11:23;;;;;;;;;20.75;19.50;;;;;8.26;63.59;102299.31;5083397;28;45568;-65
2021/12/20 09:13:49;;;;;;;;;25.00;21.75;;;;;8.20;63.70;102299.28;5083124;28;46027;-65
2021/12/20 09:16:15;;;;;;;;;23.50;20.50;;;;;8.25;63.62;102306.41;5083339;28;45328;-65
2021/12/20 09:18:41;;;;;;;;;29.00;26.50;;;;;8.23;64.01;102293.97;5083281;28;45523;-65
2021/12/20 09:21:09;;;;;;;;;27.00;24.75;;;;;8.23;63.54;102293.97;5083193;28;45342;-65
2021/12/20 09:23:35;;;;;;;;;23.00;18.75;;;;;8.24;63.52;102307.28;5082838;28;46111;-65
2021/12/20 09:26:00;;;;;;;;;28.75;25.25;;;;;8.22;63.57;102302.84;5083017;28;45273;-64
2021/12/20 09:28:26;;;;;;;;;24.00;22.75;;;;;8.21;63.28;102307.28;5083201;28;45195;-65
2021/12/20 09:30:51;;;;;;;;;27.75;23.50;;;;;8.17;63.22;102297.53;5082938;28;45166;-64
2021/12/20 09:33:16;;;;;;;;;23.50;18.75;;;;;8.18;63.11;102293.09;5082934;28;46347;-65
2021/12/20 09:35:42;;;;;;;;;25.00;18.50;;;;;8.13;63.25;102306.38;5083045;28;45251;-64
2021/12/20 09:38:10;;;;;;;;;31.25;29.25;;;;;8.10;63.02;102311.69;5081382;28;45379;-64
2021/12/20 09:40:40;;;;;;;;;28.25;23.25;;;;;8.04;63.24;102307.25;5082706;28;45288;-65
2021/12/20 09:43:11;;;;;;;;;28.00;25.50;;;;;8.01;63.39;102311.66;5082497;28;45335;-64
2021/12/20 09:45:38;;;;;;;;;22.50;21.00;;;;;8.00;63.30;102307.22;5082866;28;45667;-65
2021/12/20 09:48:04;;;;;;;;;30.50;29.00;;;;;7.98;63.54;102307.22;5082486;28;45336;-65
2021/12/20 09:50:29;;;;;;;;;21.50;20.75;;;;;7.96;63.65;102306.31;5082632;28;45310;-65
2021/12/20 09:52:55;;;;;;;;;31.00;26.00;;;;;7.96;63.32;102308.97;5081570;28;45982;-65
2021/12/20 09:55:20;;;;;;;;;29.50;25.50;;;;;7.90;63.52;102307.19;5082583;28;45309;-65
2021/12/20 09:57:49;;;;;;;;;24.00;23.00;;;;;7.86;63.61;102313.38;5082431;28;45232;-65
2021/12/20 10:00:17;;;;;;;;;30.50;22.75;;;;;7.92;63.99;102307.22;5082517;28;45338;-65
2021/12/20 10:02:44;;;;;;;;;22.75;19.50;;;;;7.98;63.59;102307.22;5082194;28;45521;-65
2021/12/20 10:05:12;;;;;;;;;26.75;21.50;;;;;7.90;63.46;102301.88;5082513;28;45224;-65
2021/12/20 10:07:39;;;;;;;;;27.25;24.50;;;;;8.00;63.66;102315.19;5082195;28;45413;-65
2021/12/20 10:10:06;;;;;;;;;25.50;21.25;;;;;7.98;63.39;102318.75;5082237;28;45481;-64
2021/12/20 10:12:31;;;;;;;;;26.00;20.75;;;;;7.97;63.39;102316.09;5082298;28;45268;-64
2021/12/20 10:15:06;;;;;;;;;25.50;16.75;;;;;8.01;63.84;102320.53;5082318;28;45309;-63
2021/12/20 10:17:48;;;;;;;;;25.25;20.75;;;;;7.97;63.64;102316.09;5082355;28;45334;-65
2021/12/20 10:20:22;;;;;;;;;27.50;21.75;;;;;7.95;63.49;102318.75;5081049;28;45357;-65
2021/12/20 10:22:48;;;;;;;;;19.75;15.25;;;;;7.90;63.29;102304.53;5063868;28;48253;-65
2021/12/20 10:25:30;;;;;;;;;27.25;23.25;;;;;7.95;63.29;102307.19;5081936;28;45725;-65
2021/12/20 10:28:11;;;;;;;;;20.50;18.50;;;;;7.99;63.72;102314.31;5081137;28;45445;-65
2021/12/20 10:30:40;;;;;;;;;23.00;20.00;;;;;7.95;63.69;102292.16;5081827;28;45487;-65
2021/12/20 10:33:13;;;;;;;;;18.00;18.00;;;;;7.98;63.55;102285.94;5081831;28;45250;-65
2021/12/20 10:35:52;;;;;;;;;24.75;18.75;;;;;8.13;63.37;102312.56;5080793;28;45254;-65
2021/12/20 10:38:25;;;;;;;;;20.50;17.00;;;;;8.11;63.37;102314.34;5081661;28;45339;-65
2021/12/20 10:41:06;;;;;;;;;19.50;14.50;;;;;8.14;63.05;102309.03;5081902;28;45330;-64
2021/12/20 10:43:44;;;;;;;;;25.25;18.00;;;;;8.09;63.02;102294.84;5081818;28;46143;-65
2021/12/20 10:46:17;;;;;;;;;22.25;19.50;;;;;8.13;63.21;102299.25;5081444;28;45800;-65
2021/12/20 10:48:47;;;;;;;;;15.00;14.00;;;;;8.21;63.18;102298.41;5081766;28;45383;-65
2021/12/20 10:51:41;;;;;;;;;20.25;19.00;;;;;8.21;63.04;102293.97;5081641;28;45374;-65
2021/12/20 10:54:11;;;;;;;;;16.75;14.50;;;;;8.20;62.98;102286.00;5078437;28;45343;-64
2021/12/20 10:56:39;;;;;;;;;21.25;19.75;;;;;8.13;62.90;102280.66;5081538;28;45349;-65
2021/12/20 10:59:10;;;;;;;;;18.50;16.75;;;;;8.19;62.98;102305.53;5081608;28;45429;-64
2021/12/20 11:04:30;;;;;;;;;13.50;11.75;;;;;8.21;63.35;102295.75;5080912;28;45713;-65
2021/12/20 11:09:32;;;;;;;;;13.00;12.75;;;;;8.28;62.78;102290.44;5081376;28;45264;-65
2021/12/20 11:12:01;;;;;;;;;19.00;14.00;;;;;8.30;62.75;102287.78;5081274;28;45499;-66
2021/12/20 11:14:31;;;;;;;;;18.75;14.50;;;;;8.26;62.33;102291.34;5081271;28;45279;-66
2021/12/20 11:16:58;;;;;;;;;8.75;8.75;;;;;8.20;62.68;102284.22;5081411;28;45330;-65
2021/12/20 11:19:44;;;;;;;;;12.50;11.50;;;;;8.13;62.17;102270.00;5081502;28;45304;-65
2021/12/20 11:22:14;;;;;;;;;11.75;11.75;;;;;8.09;62.07;102286.84;5080927;28;45460;-65
2021/12/20 11:24:54;;;;;;;;;18.50;14.50;;;;;8.03;62.60;102277.97;5081143;28;46310;-65
2021/12/20 11:27:22;;;;;;;;;12.00;10.50;;;;;8.02;62.44;102269.13;5081042;28;45608;-65
2021/12/20 11:29:51;;;;;;;;;13.75;12.00;;;;;8.06;62.77;102272.66;5081325;28;45318;-65
2021/12/20 11:32:18;;;;;;;;;13.75;12.75;;;;;8.08;62.55;102261.13;5067923;28;45420;-65
2021/12/20 11:34:44;;;;;;;;;11.00;11.00;;;;;8.10;62.45;102261.13;5081035;28;46529;-64
2021/12/20 11:37:12;;;;;;;;;15.75;12.25;;;;;8.15;62.51;102264.69;5080928;28;45157;-64
2021/12/20 11:39:37;;;;;;;;;21.75;20.25;;;;;8.13;62.21;102248.72;5081144;28;45557;-64